Historyczne dane pomiarowe

Dodano dane terminowe – wersja testowa.

Dane z okresu 1951-2019

Wersja bazy: 1.34 [2019-03-16, lista zmian], aktualizacja planowana na 2019-04-15

Dane meteo z obszaru Polski uzyskane na podstawie danych udostępnionych przez Instytut Meteorologii i Gospodarki Wodnej – Państwowy Instytut Badawczy.

 

Wybierz Datę:    

       

TemperaturaWilgotnośćWiatrCiśnienieOpadyŚniegCzas trwania zjawisk
 Stacja t tx tn tng RH VA  wxwx mslp ppp RRR   cm mm wxwxwxwxwxwxwx
1994-08-14 14.6 17.9 10.4- 89.5- 5.7 10.0---- 10.6------------
1994-08-13 17.6 19.8 14.9- 90.0- 7.3 5.7---- 5.5------------
1994-08-12 20.6 24.8 18.1- 92.3- 7.3 1.3---- 2.0------------
1994-08-11 20.4 27.2 17.3- 89.0- 6.7 3.7---- 0.0------------
1994-08-10 20.9 24.9 16.4- 88.0- 4.3 2.0---- 0.0------------
1994-08-09 20.9 24.9 16.4- 88.0- 4.3 2.0---- 0.0------------
1994-08-08 21.8 26.0 15.7- 85.0- 2.7 4.0---- 0.0------------
1994-08-07 21.7 24.4 20.3- 84.8- 3.7 4.3---- 0.0------------
1994-08-06 23.7 27.0 21.5- 90.8- 4.0 5.0---- 0.0------------
1994-08-05 21.6 27.9 15.4- 88.8- 2.0 2.7---- 0.0------------
1994-08-04 21.1 25.4 16.1- 90.0- 3.7 2.3---- 0.0------------
1994-08-03 22.7 25.9 21.1- 89.3- 2.3 4.7---- 0.0------------
1994-08-02 23.7 26.9 16.6- 86.8- 5.7 5.3---- 0.0------------
1994-08-01 25.8 37.0 17.7- 70.0- 4.7 5.0---- 0.0------------
1994-07-31 22.9 29.8 19.3- 87.8- 5.0 5.3---- 0.2------------
1994-07-30 22.5 25.3 20.3- 90.3- 3.3 5.3---- 0.0------------
1994-07-29 24.4 30.7 21.2- 81.0- 4.3 3.0---- 0.0------------
1994-07-28 22.7 26.9 17.3- 85.0- 0.7 2.3---- 0.0------------
1994-07-27 22.6 28.9 19.6- 94.8- 3.7 2.3---- 0.0------------
1994-07-26 27.4 35.6 15.6- 62.0- 3.3 2.3---- 0.0------------
1994-07-25 18.6 21.7 14.8- 87.0- 1.7 4.0---- 0.0------------
1994-07-24 20.5 27.3 15.6- 83.3- 2.0 3.0---- 0.0------------
1994-07-23 20.5 27.4 16.7- 78.0- 5.7 2.7---- 0.0------------
1994-07-22 19.5 23.0 13.9- 76.5- 2.3 3.3---- 0.0------------
1994-07-21 19.1 24.7 14.1- 80.0- 0.7 2.0---- 0.0------------
1994-07-20 18.5 22.4 13.1- 80.5- 1.0 2.7---- 0.0------------
1994-07-19 18.4 21.0 13.8- 79.0- 1.0 4.3---- 0.0------------
1994-07-18 19.4 23.4 14.4- 73.8- 3.3 4.7---- 0.0------------
1994-07-17 19.3 22.2 18.0- 71.5- 4.7 3.0---- 0.0------------
1994-07-16 21.3 24.9 18.7- 82.5- 6.0 3.0---- 0.0------------
1994-07-15 23.1 27.5 19.9- 80.3- 5.0 2.3---- 0.0------------
1994-07-14 24.6 33.0 17.6- 65.0- 4.7 3.7---- 0.0------------
1994-07-13 21.7 26.1 17.8- 79.0- 3.0 2.0---- 0.0------------
1994-07-12 20.3 23.2 14.1- 79.3- 1.3 3.3---- 0.0------------
1994-07-11 18.8 23.1 13.1- 87.0- 0.3 3.0---- 0.0------------
1994-07-10 18.8 21.7 15.8- 86.8- 3.3 4.3---- 0.0------------
1994-07-09 18.2 21.4 15.1- 88.8- 3.0 4.7---- 0.0------------
1994-07-08 17.1 20.7 14.4- 89.5- 5.0 3.7---- 0.0------------
1994-07-07 15.7 21.2 9.3- 87.3- 4.0 3.0---- 0.0------------
1994-07-06 15.9 18.2 13.1- 84.0- 4.3 2.7---- 0.0------------
1994-07-05 15.8 18.3 12.6- 87.8- 6.3 4.0---- 2.8------------
1994-07-04 18.5 22.0 13.5- 83.8- 2.0 4.3---- 0.0------------
1994-07-03 18.4 25.7 13.1- 81.8- 3.0 4.0---- 0.0------------
1994-07-02 15.7 22.3 9.3- 86.8- 2.7 3.7---- 0.0------------
1994-07-01 17.0 18.6 15.1- 88.0- 3.3 4.0---- 0.0------------
1994-06-30 17.5 20.6 14.2- 85.0- 3.3 5.3---- 0.0------------
1994-06-29 22.4 34.4 15.1- 86.8- 6.0 3.0---- 11.9------------
1994-06-28 19.0 22.7 14.2- 90.3- 1.3 2.7---- 0.0------------
1994-06-27 18.8 21.5 15.6- 87.5- 6.0 2.3---- 0.0------------
1994-06-26 20.0 25.7 14.4- 81.0- 3.7 2.7---- 0.0------------
1994-06-25 17.0 26.4 7.3- 68.5- 0.3 2.3---- 0.0------------
1994-06-24 13.6 16.7 11.0- 86.8- 3.7 5.3---- 0.0------------
1994-06-23 13.6 16.7 11.8- 84.8- 4.3 12.0---- 0.0------------
1994-06-22 15.7 19.3 13.6- 96.3- 7.7 6.0---- 7.0------------
1994-06-21 17.2 22.5 9.3- 79.3- 5.0 2.0---- 3.0------------
1994-06-20 14.2 16.5 11.7- 85.0- 3.0 8.3---- 0.0------------
1994-06-19 14.1 16.6 11.1- 97.0- 8.0 4.7---- 0.0------------
1994-06-18 12.4 16.1 8.6- 91.5- 7.7 5.3---- 7.4------------
1994-06-17 11.7 14.7 8.1- 82.3- 5.0 8.7---- 0.0------------
1994-06-16 12.3 14.3 9.3- 82.3- 6.0 11.0---- 3.0------------
242.1 ms

 

Źródłem pochodzenia danych jest Instytut Meteorologii i Gospodarki Wodnej – Państwowy Instytut Badawczy. Dane Instytutu Meteorologii i Gospodarki Wodnej – Państwowego Instytutu Badawczego zostały przetworzone.

Dane źródłowe można odnaleźć na stronie https://dane.imgw.pl